aviador You're here:

KARA Decoded Metar

LOUISIANA in LA, USA
Report Time2018-02-25 14:53:00
UTC Time2018-02-25 15:12:01
Flight Rules vfr VFR
Wind070° at 09 kt
W.Decomp.*RWY 34: 0.5 kt HW 9.0 kt RCW
W.Rank070° ranks 20
Current wind is above 070° avg. (6.0)
Visibility9999 m
Phenomena:N/A
Clouds:Broken 030 Hf
Overcast 036 Hf
Expected CloudBase > 1,200 ft AGL from Temp-Dew spread
Ceiling3,000 ft
Temp17°C (ISA +2)
Dew Point14°C (83% RH)
AAT15.1°C
QNH1019 hPa
Density Alt318 ft
Elevation59 ft
Report Wrong Elevation
Raw Report
KARA 251453Z 07009KT 10SM BKN030 OVC036 17/14 A3008 RMK AO2 SLP187
60000 T01720144 50005=

Extra information for KARA:More info

Metar Taf Metar & Taf Last 4 Metars F.Rules Stats Wind Profile Meteogram Temp Stats Airport Information Weather charts Add Link Nearby VenuesMetar ALERT Operation Metar Decoded Social comments

AIRNAV info for KARA